sensor_id;sensor_type;location;lat;lon;timestamp;temperature;humidity
54622;DHT22;40521;53.146;6.556;2023-05-17T00:00:49;7.60;99.90
54622;DHT22;40521;53.146;6.556;2023-05-17T00:03:15;7.40;99.90
54622;DHT22;40521;53.146;6.556;2023-05-17T00:05:41;7.30;99.90
54622;DHT22;40521;53.146;6.556;2023-05-17T00:08:06;7.10;99.90
54622;DHT22;40521;53.146;6.556;2023-05-17T00:10:32;7.00;99.90
54622;DHT22;40521;53.146;6.556;2023-05-17T00:12:57;7.00;99.90
54622;DHT22;40521;53.146;6.556;2023-05-17T00:15:26;6.90;99.90
54622;DHT22;40521;53.146;6.556;2023-05-17T00:17:52;6.80;99.90
54622;DHT22;40521;53.146;6.556;2023-05-17T00:20:17;6.70;99.90
54622;DHT22;40521;53.146;6.556;2023-05-17T00:22:43;6.60;99.90
54622;DHT22;40521;53.146;6.556;2023-05-17T00:25:10;6.60;99.90
54622;DHT22;40521;53.146;6.556;2023-05-17T00:27:35;6.50;99.90
54622;DHT22;40521;53.146;6.556;2023-05-17T00:30:01;6.40;99.90
54622;DHT22;40521;53.146;6.556;2023-05-17T00:32:27;6.40;99.90
54622;DHT22;40521;53.146;6.556;2023-05-17T00:34:52;6.40;99.90
54622;DHT22;40521;53.146;6.556;2023-05-17T00:37:20;6.40;99.90
54622;DHT22;40521;53.146;6.556;2023-05-17T00:39:46;6.40;99.90
54622;DHT22;40521;53.146;6.556;2023-05-17T00:42:12;6.40;99.90
54622;DHT22;40521;53.146;6.556;2023-05-17T00:44:37;6.20;99.90
54622;DHT22;40521;53.146;6.556;2023-05-17T00:47:03;6.40;99.90
54622;DHT22;40521;53.146;6.556;2023-05-17T00:49:29;6.50;99.90
54622;DHT22;40521;53.146;6.556;2023-05-17T00:51:54;6.50;99.90
54622;DHT22;40521;53.146;6.556;2023-05-17T00:54:20;6.50;99.90
54622;DHT22;40521;53.146;6.556;2023-05-17T00:56:46;6.60;99.90
54622;DHT22;40521;53.146;6.556;2023-05-17T00:59:12;6.80;99.90
54622;DHT22;40521;53.146;6.556;2023-05-17T01:01:41;6.80;99.90
54622;DHT22;40521;53.146;6.556;2023-05-17T01:04:10;6.90;99.90
54622;DHT22;40521;53.146;6.556;2023-05-17T01:06:36;7.30;99.90
54622;DHT22;40521;53.146;6.556;2023-05-17T01:09:02;7.00;99.90
54622;DHT22;40521;53.146;6.556;2023-05-17T01:11:39;7.00;99.90
54622;DHT22;40521;53.146;6.556;2023-05-17T01:14:11;7.10;99.90
54622;DHT22;40521;53.146;6.556;2023-05-17T01:16:39;7.10;99.90
54622;DHT22;40521;53.146;6.556;2023-05-17T01:19:11;7.20;99.90
54622;DHT22;40521;53.146;6.556;2023-05-17T01:24:30;7.30;99.90
54622;DHT22;40521;53.146;6.556;2023-05-17T01:26:58;7.30;99.90
54622;DHT22;40521;53.146;6.556;2023-05-17T01:29:25;7.30;99.90
54622;DHT22;40521;53.146;6.556;2023-05-17T01:31:51;7.20;99.90
54622;DHT22;40521;53.146;6.556;2023-05-17T01:34:24;7.20;99.90
54622;DHT22;40521;53.146;6.556;2023-05-17T01:36:50;7.10;99.90
54622;DHT22;40521;53.146;6.556;2023-05-17T01:39:16;7.10;99.90
54622;DHT22;40521;53.146;6.556;2023-05-17T01:41:41;7.10;99.90
54622;DHT22;40521;53.146;6.556;2023-05-17T01:44:20;7.00;99.90
54622;DHT22;40521;53.146;6.556;2023-05-17T01:46:49;6.90;99.90
54622;DHT22;40521;53.146;6.556;2023-05-17T01:49:20;6.80;99.90
54622;DHT22;40521;53.146;6.556;2023-05-17T01:51:47;6.80;99.90
54622;DHT22;40521;53.146;6.556;2023-05-17T01:54:21;6.70;99.90
54622;DHT22;40521;53.146;6.556;2023-05-17T01:56:47;6.70;99.90
54622;DHT22;40521;53.146;6.556;2023-05-17T01:59:18;6.60;99.90
54622;DHT22;40521;53.146;6.556;2023-05-17T02:01:46;6.50;99.90
54622;DHT22;40521;53.146;6.556;2023-05-17T02:04:12;6.40;99.90
54622;DHT22;40521;53.146;6.556;2023-05-17T02:06:38;6.30;99.90
54622;DHT22;40521;53.146;6.556;2023-05-17T02:09:04;6.30;99.90
54622;DHT22;40521;53.146;6.556;2023-05-17T02:11:29;6.10;99.90
54622;DHT22;40521;53.146;6.556;2023-05-17T02:13:56;6.10;99.90
54622;DHT22;40521;53.146;6.556;2023-05-17T02:16:23;6.00;99.90
54622;DHT22;40521;53.146;6.556;2023-05-17T02:18:48;5.90;99.90
54622;DHT22;40521;53.146;6.556;2023-05-17T02:21:15;5.80;99.90
54622;DHT22;40521;53.146;6.556;2023-05-17T02:23:42;5.70;99.90
54622;DHT22;40521;53.146;6.556;2023-05-17T02:26:08;5.70;99.90
54622;DHT22;40521;53.146;6.556;2023-05-17T02:28:34;5.70;99.90
54622;DHT22;40521;53.146;6.556;2023-05-17T02:30:59;5.70;99.90
54622;DHT22;40521;53.146;6.556;2023-05-17T02:33:25;5.70;99.90
54622;DHT22;40521;53.146;6.556;2023-05-17T02:35:51;5.70;99.90
54622;DHT22;40521;53.146;6.556;2023-05-17T02:38:17;5.70;99.90
54622;DHT22;40521;53.146;6.556;2023-05-17T02:40:42;5.80;99.90
54622;DHT22;40521;53.146;6.556;2023-05-17T02:43:08;5.80;99.90
54622;DHT22;40521;53.146;6.556;2023-05-17T02:45:33;5.80;99.90
54622;DHT22;40521;53.146;6.556;2023-05-17T02:47:59;5.90;99.90
54622;DHT22;40521;53.146;6.556;2023-05-17T02:50:25;5.90;99.90
54622;DHT22;40521;53.146;6.556;2023-05-17T02:52:50;6.00;99.90
54622;DHT22;40521;53.146;6.556;2023-05-17T02:55:16;6.00;99.90
54622;DHT22;40521;53.146;6.556;2023-05-17T02:57:41;6.10;99.90
54622;DHT22;40521;53.146;6.556;2023-05-17T03:00:07;6.10;99.90
54622;DHT22;40521;53.146;6.556;2023-05-17T03:02:33;6.10;99.90
54622;DHT22;40521;53.146;6.556;2023-05-17T03:04:59;6.10;99.90
54622;DHT22;40521;53.146;6.556;2023-05-17T03:07:25;6.20;99.90
54622;DHT22;40521;53.146;6.556;2023-05-17T03:09:50;6.20;99.90
54622;DHT22;40521;53.146;6.556;2023-05-17T03:12:16;6.30;99.90
54622;DHT22;40521;53.146;6.556;2023-05-17T03:14:41;6.30;99.90
54622;DHT22;40521;53.146;6.556;2023-05-17T03:17:07;6.40;99.90
54622;DHT22;40521;53.146;6.556;2023-05-17T03:19:33;6.40;99.90
54622;DHT22;40521;53.146;6.556;2023-05-17T03:21:58;6.40;99.90
54622;DHT22;40521;53.146;6.556;2023-05-17T03:24:24;6.40;99.90
54622;DHT22;40521;53.146;6.556;2023-05-17T03:26:50;3.00;99.90
54622;DHT22;40521;53.146;6.556;2023-05-17T03:29:15;6.50;99.90
54622;DHT22;40521;53.146;6.556;2023-05-17T03:31:41;6.50;99.90
54622;DHT22;40521;53.146;6.556;2023-05-17T03:34:07;6.60;99.90
54622;DHT22;40521;53.146;6.556;2023-05-17T03:36:36;6.60;99.90
54622;DHT22;40521;53.146;6.556;2023-05-17T03:39:03;6.60;99.90
54622;DHT22;40521;53.146;6.556;2023-05-17T03:41:29;6.60;99.90
54622;DHT22;40521;53.146;6.556;2023-05-17T03:43:56;6.60;99.90
54622;DHT22;40521;53.146;6.556;2023-05-17T03:46:22;6.60;99.90
54622;DHT22;40521;53.146;6.556;2023-05-17T03:48:47;6.60;99.90
54622;DHT22;40521;53.146;6.556;2023-05-17T03:51:13;6.70;99.90
54622;DHT22;40521;53.146;6.556;2023-05-17T03:53:39;6.70;99.90
54622;DHT22;40521;53.146;6.556;2023-05-17T03:56:08;6.80;99.90
54622;DHT22;40521;53.146;6.556;2023-05-17T03:58:33;6.90;99.90
54622;DHT22;40521;53.146;6.556;2023-05-17T04:00:59;6.90;99.90
54622;DHT22;40521;53.146;6.556;2023-05-17T04:03:25;7.00;99.90
54622;DHT22;40521;53.146;6.556;2023-05-17T04:05:50;7.00;99.90
54622;DHT22;40521;53.146;6.556;2023-05-17T04:08:16;7.00;99.90
54622;DHT22;40521;53.146;6.556;2023-05-17T04:10:42;7.00;99.90
54622;DHT22;40521;53.146;6.556;2023-05-17T04:13:08;6.90;99.90
54622;DHT22;40521;53.146;6.556;2023-05-17T04:15:34;6.90;99.90
54622;DHT22;40521;53.146;6.556;2023-05-17T04:18:00;6.90;99.90
54622;DHT22;40521;53.146;6.556;2023-05-17T04:20:25;6.80;99.90
54622;DHT22;40521;53.146;6.556;2023-05-17T04:22:51;6.90;99.90
54622;DHT22;40521;53.146;6.556;2023-05-17T04:25:17;7.00;99.90
54622;DHT22;40521;53.146;6.556;2023-05-17T04:27:43;7.00;99.90
54622;DHT22;40521;53.146;6.556;2023-05-17T04:30:10;7.00;99.90
54622;DHT22;40521;53.146;6.556;2023-05-17T04:32:36;7.10;99.90
54622;DHT22;40521;53.146;6.556;2023-05-17T04:35:02;7.20;99.90
54622;DHT22;40521;53.146;6.556;2023-05-17T04:37:27;7.20;99.90
54622;DHT22;40521;53.146;6.556;2023-05-17T04:39:53;7.40;99.90
54622;DHT22;40521;53.146;6.556;2023-05-17T04:42:19;7.40;99.90
54622;DHT22;40521;53.146;6.556;2023-05-17T04:44:44;7.50;99.90
54622;DHT22;40521;53.146;6.556;2023-05-17T04:47:10;7.50;99.90
54622;DHT22;40521;53.146;6.556;2023-05-17T04:49:35;7.60;99.90
54622;DHT22;40521;53.146;6.556;2023-05-17T04:52:01;7.50;99.90
54622;DHT22;40521;53.146;6.556;2023-05-17T04:54:27;7.60;99.90
54622;DHT22;40521;53.146;6.556;2023-05-17T04:56:53;7.70;99.90
54622;DHT22;40521;53.146;6.556;2023-05-17T04:59:18;7.70;99.90
54622;DHT22;40521;53.146;6.556;2023-05-17T05:01:44;7.80;99.90
54622;DHT22;40521;53.146;6.556;2023-05-17T05:04:09;7.80;99.90
54622;DHT22;40521;53.146;6.556;2023-05-17T05:06:35;7.90;99.90
54622;DHT22;40521;53.146;6.556;2023-05-17T05:09:01;7.90;99.90
54622;DHT22;40521;53.146;6.556;2023-05-17T05:11:26;7.90;99.90
54622;DHT22;40521;53.146;6.556;2023-05-17T05:13:52;7.90;99.90
54622;DHT22;40521;53.146;6.556;2023-05-17T05:16:17;8.00;99.90
54622;DHT22;40521;53.146;6.556;2023-05-17T05:18:43;8.00;99.90
54622;DHT22;40521;53.146;6.556;2023-05-17T05:21:09;8.00;99.90
54622;DHT22;40521;53.146;6.556;2023-05-17T05:23:34;8.00;99.90
54622;DHT22;40521;53.146;6.556;2023-05-17T05:26:00;8.00;99.90
54622;DHT22;40521;53.146;6.556;2023-05-17T05:28:25;8.10;99.90
54622;DHT22;40521;53.146;6.556;2023-05-17T05:30:55;8.10;99.90
54622;DHT22;40521;53.146;6.556;2023-05-17T05:33:21;8.10;99.90
54622;DHT22;40521;53.146;6.556;2023-05-17T05:35:47;8.20;99.90
54622;DHT22;40521;53.146;6.556;2023-05-17T05:38:12;8.30;99.90
54622;DHT22;40521;53.146;6.556;2023-05-17T05:40:38;8.40;99.90
54622;DHT22;40521;53.146;6.556;2023-05-17T05:43:04;8.40;99.90
54622;DHT22;40521;53.146;6.556;2023-05-17T05:45:29;8.40;99.90
54622;DHT22;40521;53.146;6.556;2023-05-17T05:47:55;8.50;99.90
54622;DHT22;40521;53.146;6.556;2023-05-17T05:50:20;8.60;99.90
54622;DHT22;40521;53.146;6.556;2023-05-17T05:52:46;8.70;99.90
54622;DHT22;40521;53.146;6.556;2023-05-17T05:55:12;8.90;99.90
54622;DHT22;40521;53.146;6.556;2023-05-17T05:57:37;8.90;99.90
54622;DHT22;40521;53.146;6.556;2023-05-17T06:00:03;8.90;99.90
54622;DHT22;40521;53.146;6.556;2023-05-17T06:02:29;7.50;99.90
54622;DHT22;40521;53.146;6.556;2023-05-17T06:04:54;9.00;99.90
54622;DHT22;40521;53.146;6.556;2023-05-17T06:07:20;9.00;99.90
54622;DHT22;40521;53.146;6.556;2023-05-17T06:09:46;9.00;99.90
54622;DHT22;40521;53.146;6.556;2023-05-17T06:12:11;9.00;99.90
54622;DHT22;40521;53.146;6.556;2023-05-17T06:14:37;9.00;99.90
54622;DHT22;40521;53.146;6.556;2023-05-17T06:17:03;9.10;99.90
54622;DHT22;40521;53.146;6.556;2023-05-17T06:19:29;9.00;99.90
54622;DHT22;40521;53.146;6.556;2023-05-17T06:21:54;9.10;99.90
54622;DHT22;40521;53.146;6.556;2023-05-17T06:24:20;8.40;99.90
54622;DHT22;40521;53.146;6.556;2023-05-17T06:26:45;9.30;99.90
54622;DHT22;40521;53.146;6.556;2023-05-17T06:29:14;9.40;99.90
54622;DHT22;40521;53.146;6.556;2023-05-17T06:31:39;10.40;99.90
54622;DHT22;40521;53.146;6.556;2023-05-17T06:34:05;9.40;99.90
54622;DHT22;40521;53.146;6.556;2023-05-17T06:36:33;9.40;99.90
54622;DHT22;40521;53.146;6.556;2023-05-17T06:38:59;9.30;99.90
54622;DHT22;40521;53.146;6.556;2023-05-17T06:41:25;9.30;99.90
54622;DHT22;40521;53.146;6.556;2023-05-17T06:43:50;9.20;99.90
54622;DHT22;40521;53.146;6.556;2023-05-17T06:46:16;9.20;99.90
54622;DHT22;40521;53.146;6.556;2023-05-17T06:48:42;9.20;99.90
54622;DHT22;40521;53.146;6.556;2023-05-17T06:51:13;9.20;99.90
54622;DHT22;40521;53.146;6.556;2023-05-17T06:53:39;9.20;99.90
54622;DHT22;40521;53.146;6.556;2023-05-17T06:56:05;9.20;99.90
54622;DHT22;40521;53.146;6.556;2023-05-17T06:58:31;9.20;99.90
54622;DHT22;40521;53.146;6.556;2023-05-17T07:00:57;9.30;99.90
54622;DHT22;40521;53.146;6.556;2023-05-17T07:03:22;9.40;99.90
54622;DHT22;40521;53.146;6.556;2023-05-17T07:05:48;9.40;99.90
54622;DHT22;40521;53.146;6.556;2023-05-17T07:08:14;9.40;99.90
54622;DHT22;40521;53.146;6.556;2023-05-17T07:10:40;9.50;99.90
54622;DHT22;40521;53.146;6.556;2023-05-17T07:13:05;9.50;99.90
54622;DHT22;40521;53.146;6.556;2023-05-17T07:15:31;9.60;99.90
54622;DHT22;40521;53.146;6.556;2023-05-17T07:17:56;9.60;99.90
54622;DHT22;40521;53.146;6.556;2023-05-17T07:20:23;9.50;99.90
54622;DHT22;40521;53.146;6.556;2023-05-17T07:22:49;9.50;99.90
54622;DHT22;40521;53.146;6.556;2023-05-17T07:25:14;9.50;99.90
54622;DHT22;40521;53.146;6.556;2023-05-17T07:27:42;9.50;99.90
54622;DHT22;40521;53.146;6.556;2023-05-17T07:30:08;9.50;99.90
54622;DHT22;40521;53.146;6.556;2023-05-17T07:32:33;9.50;99.90
54622;DHT22;40521;53.146;6.556;2023-05-17T07:34:59;9.50;99.90
54622;DHT22;40521;53.146;6.556;2023-05-17T07:37:26;10.20;99.90
54622;DHT22;40521;53.146;6.556;2023-05-17T07:39:52;9.60;99.90
54622;DHT22;40521;53.146;6.556;2023-05-17T07:42:17;9.60;99.90
54622;DHT22;40521;53.146;6.556;2023-05-17T07:44:43;9.70;99.90
54622;DHT22;40521;53.146;6.556;2023-05-17T07:47:09;9.80;99.90
54622;DHT22;40521;53.146;6.556;2023-05-17T07:49:34;10.10;99.90
54622;DHT22;40521;53.146;6.556;2023-05-17T07:52:01;10.00;99.90
54622;DHT22;40521;53.146;6.556;2023-05-17T07:54:28;10.10;99.90
54622;DHT22;40521;53.146;6.556;2023-05-17T07:56:53;10.80;99.90
54622;DHT22;40521;53.146;6.556;2023-05-17T07:59:20;10.60;99.90
54622;DHT22;40521;53.146;6.556;2023-05-17T08:01:45;10.30;99.90
54622;DHT22;40521;53.146;6.556;2023-05-17T08:04:11;10.60;99.90
54622;DHT22;40521;53.146;6.556;2023-05-17T08:06:39;10.40;99.90
54622;DHT22;40521;53.146;6.556;2023-05-17T08:09:05;10.40;99.90
54622;DHT22;40521;53.146;6.556;2023-05-17T08:11:31;10.30;99.90
54622;DHT22;40521;53.146;6.556;2023-05-17T08:13:58;10.20;99.90
54622;DHT22;40521;53.146;6.556;2023-05-17T08:16:24;10.30;99.90
54622;DHT22;40521;53.146;6.556;2023-05-17T08:18:50;10.00;99.90
54622;DHT22;40521;53.146;6.556;2023-05-17T08:21:16;10.30;99.90
54622;DHT22;40521;53.146;6.556;2023-05-17T08:23:42;10.70;99.90
54622;DHT22;40521;53.146;6.556;2023-05-17T08:26:08;10.40;99.90
54622;DHT22;40521;53.146;6.556;2023-05-17T08:28:33;10.60;99.90
54622;DHT22;40521;53.146;6.556;2023-05-17T08:30:59;10.70;99.90
54622;DHT22;40521;53.146;6.556;2023-05-17T08:33:25;10.70;99.90
54622;DHT22;40521;53.146;6.556;2023-05-17T08:35:51;12.30;99.90
54622;DHT22;40521;53.146;6.556;2023-05-17T08:38:20;10.60;99.90
54622;DHT22;40521;53.146;6.556;2023-05-17T08:40:55;10.60;99.90
54622;DHT22;40521;53.146;6.556;2023-05-17T08:43:21;10.70;99.90
54622;DHT22;40521;53.146;6.556;2023-05-17T08:45:47;10.70;99.90
54622;DHT22;40521;53.146;6.556;2023-05-17T08:48:13;9.10;99.90
54622;DHT22;40521;53.146;6.556;2023-05-17T08:50:41;11.00;99.90
54622;DHT22;40521;53.146;6.556;2023-05-17T08:53:09;11.00;99.90
54622;DHT22;40521;53.146;6.556;2023-05-17T08:55:35;11.20;99.90
54622;DHT22;40521;53.146;6.556;2023-05-17T08:58:03;11.50;99.90
54622;DHT22;40521;53.146;6.556;2023-05-17T09:00:30;11.70;99.90
54622;DHT22;40521;53.146;6.556;2023-05-17T09:02:58;11.70;99.90
54622;DHT22;40521;53.146;6.556;2023-05-17T09:05:25;11.60;99.90
54622;DHT22;40521;53.146;6.556;2023-05-17T09:07:51;10.00;99.90
54622;DHT22;40521;53.146;6.556;2023-05-17T09:10:21;11.60;99.90
54622;DHT22;40521;53.146;6.556;2023-05-17T09:12:47;11.70;99.90
54622;DHT22;40521;53.146;6.556;2023-05-17T09:15:19;11.90;99.90
54622;DHT22;40521;53.146;6.556;2023-05-17T09:17:56;11.70;99.90
54622;DHT22;40521;53.146;6.556;2023-05-17T09:20:26;11.80;99.90
54622;DHT22;40521;53.146;6.556;2023-05-17T09:23:03;11.60;99.90
54622;DHT22;40521;53.146;6.556;2023-05-17T09:25:36;11.90;99.90
54622;DHT22;40521;53.146;6.556;2023-05-17T09:28:07;11.40;99.90
54622;DHT22;40521;53.146;6.556;2023-05-17T09:30:33;10.10;99.90
54622;DHT22;40521;53.146;6.556;2023-05-17T09:33:22;11.30;99.90
54622;DHT22;40521;53.146;6.556;2023-05-17T09:35:48;12.10;99.90
54622;DHT22;40521;53.146;6.556;2023-05-17T09:38:24;11.30;99.90
54622;DHT22;40521;53.146;6.556;2023-05-17T09:40:50;11.60;99.90
54622;DHT22;40521;53.146;6.556;2023-05-17T09:43:15;11.70;99.90
54622;DHT22;40521;53.146;6.556;2023-05-17T09:45:41;11.90;99.90
54622;DHT22;40521;53.146;6.556;2023-05-17T09:48:14;11.80;99.90
54622;DHT22;40521;53.146;6.556;2023-05-17T09:50:47;12.50;98.40
54622;DHT22;40521;53.146;6.556;2023-05-17T09:53:28;12.10;99.70
54622;DHT22;40521;53.146;6.556;2023-05-17T09:58:49;12.00;99.60
54622;DHT22;40521;53.146;6.556;2023-05-17T10:01:26;10.50;99.90
54622;DHT22;40521;53.146;6.556;2023-05-17T10:04:16;12.50;99.40
54622;DHT22;40521;53.146;6.556;2023-05-17T10:06:47;12.20;99.90
54622;DHT22;40521;53.146;6.556;2023-05-17T10:09:19;13.20;99.90
54622;DHT22;40521;53.146;6.556;2023-05-17T10:21:24;13.90;93.90
54622;DHT22;40521;53.146;6.556;2023-05-17T10:30:31;13.30;94.90
54622;DHT22;40521;53.146;6.556;2023-05-17T10:33:05;12.80;94.90
54622;DHT22;40521;53.146;6.556;2023-05-17T10:35:35;12.80;96.80
54622;DHT22;40521;53.146;6.556;2023-05-17T10:38:02;13.00;94.70
54622;DHT22;40521;53.146;6.556;2023-05-17T10:40:30;13.70;98.20
54622;DHT22;40521;53.146;6.556;2023-05-17T10:43:15;13.80;96.10
54622;DHT22;40521;53.146;6.556;2023-05-17T10:45:59;13.00;94.80
54622;DHT22;40521;53.146;6.556;2023-05-17T10:48:31;12.80;95.20
54622;DHT22;40521;53.146;6.556;2023-05-17T10:51:03;13.30;96.60
54622;DHT22;40521;53.146;6.556;2023-05-17T10:53:59;11.40;94.20
54622;DHT22;40521;53.146;6.556;2023-05-17T10:56:20;12.90;95.30
54622;DHT22;40521;53.146;6.556;2023-05-17T10:58:56;13.40;96.50
54622;DHT22;40521;53.146;6.556;2023-05-17T11:01:50;12.30;95.10
54622;DHT22;40521;53.146;6.556;2023-05-17T11:09:50;13.10;98.40
54622;DHT22;40521;53.146;6.556;2023-05-17T11:12:33;12.90;98.40
54622;DHT22;40521;53.146;6.556;2023-05-17T11:18:04;14.00;98.00
54622;DHT22;40521;53.146;6.556;2023-05-17T11:20:31;12.40;95.80
54622;DHT22;40521;53.146;6.556;2023-05-17T11:23:11;13.50;96.80
54622;DHT22;40521;53.146;6.556;2023-05-17T11:25:43;14.50;96.50
54622;DHT22;40521;53.146;6.556;2023-05-17T11:28:19;14.40;97.00
54622;DHT22;40521;53.146;6.556;2023-05-17T11:30:51;13.20;96.20
54622;DHT22;40521;53.146;6.556;2023-05-17T11:33:38;13.50;96.20
54622;DHT22;40521;53.146;6.556;2023-05-17T11:36:21;13.30;96.20
54622;DHT22;40521;53.146;6.556;2023-05-17T11:39:08;13.10;97.80
54622;DHT22;40521;53.146;6.556;2023-05-17T11:42:01;13.00;96.70
54622;DHT22;40521;53.146;6.556;2023-05-17T11:44:31;13.10;96.60
54622;DHT22;40521;53.146;6.556;2023-05-17T11:49:45;12.80;92.60
54622;DHT22;40521;53.146;6.556;2023-05-17T11:52:18;12.90;94.80
54622;DHT22;40521;53.146;6.556;2023-05-17T11:55:14;11.70;95.20
54622;DHT22;40521;53.146;6.556;2023-05-17T11:57:43;12.60;92.50
54622;DHT22;40521;53.146;6.556;2023-05-17T12:00:12;13.30;98.00
54622;DHT22;40521;53.146;6.556;2023-05-17T12:02:40;11.50;94.10
54622;DHT22;40521;53.146;6.556;2023-05-17T12:05:18;13.70;93.30
54622;DHT22;40521;53.146;6.556;2023-05-17T12:07:54;13.10;92.70
54622;DHT22;40521;53.146;6.556;2023-05-17T12:10:22;16.30;93.80
54622;DHT22;40521;53.146;6.556;2023-05-17T12:12:54;12.40;94.50
54622;DHT22;40521;53.146;6.556;2023-05-17T12:15:39;11.90;92.70
54622;DHT22;40521;53.146;6.556;2023-05-17T12:18:11;13.70;92.70
54622;DHT22;40521;53.146;6.556;2023-05-17T12:20:51;12.80;95.70
54622;DHT22;40521;53.146;6.556;2023-05-17T12:23:21;12.90;92.20
54622;DHT22;40521;53.146;6.556;2023-05-17T12:26:00;13.20;93.40
54622;DHT22;40521;53.146;6.556;2023-05-17T12:28:31;13.70;91.00
54622;DHT22;40521;53.146;6.556;2023-05-17T12:31:17;11.40;90.50
54622;DHT22;40521;53.146;6.556;2023-05-17T12:33:51;11.80;91.00
54622;DHT22;40521;53.146;6.556;2023-05-17T12:36:17;13.20;92.70
54622;DHT22;40521;53.146;6.556;2023-05-17T12:38:43;13.00;92.00
54622;DHT22;40521;53.146;6.556;2023-05-17T12:41:12;13.10;93.80
54622;DHT22;40521;53.146;6.556;2023-05-17T12:43:46;13.70;90.90
54622;DHT22;40521;53.146;6.556;2023-05-17T12:49:26;13.80;90.00
54622;DHT22;40521;53.146;6.556;2023-05-17T12:51:54;13.90;91.20
54622;DHT22;40521;53.146;6.556;2023-05-17T12:54:26;13.90;94.00
54622;DHT22;40521;53.146;6.556;2023-05-17T12:56:55;16.50;95.20
54622;DHT22;40521;53.146;6.556;2023-05-17T12:59:25;13.90;95.20
54622;DHT22;40521;53.146;6.556;2023-05-17T13:01:56;14.10;92.70
54622;DHT22;40521;53.146;6.556;2023-05-17T13:04:32;14.40;87.20
54622;DHT22;40521;53.146;6.556;2023-05-17T13:07:10;14.50;91.50
54622;DHT22;40521;53.146;6.556;2023-05-17T13:09:44;16.70;91.80
54622;DHT22;40521;53.146;6.556;2023-05-17T13:12:37;14.60;90.00
54622;DHT22;40521;53.146;6.556;2023-05-17T13:15:23;14.00;86.70
54622;DHT22;40521;53.146;6.556;2023-05-17T13:17:53;14.70;88.80
54622;DHT22;40521;53.146;6.556;2023-05-17T13:20:21;14.00;94.90
54622;DHT22;40521;53.146;6.556;2023-05-17T13:22:52;14.30;92.30
54622;DHT22;40521;53.146;6.556;2023-05-17T13:28:29;12.50;90.10
54622;DHT22;40521;53.146;6.556;2023-05-17T13:31:07;13.90;87.30
54622;DHT22;40521;53.146;6.556;2023-05-17T13:36:24;14.70;86.30
54622;DHT22;40521;53.146;6.556;2023-05-17T13:38:50;14.60;90.60
54622;DHT22;40521;53.146;6.556;2023-05-17T13:41:16;14.60;89.70
54622;DHT22;40521;53.146;6.556;2023-05-17T13:43:45;14.70;91.20
54622;DHT22;40521;53.146;6.556;2023-05-17T13:46:13;14.40;88.40
54622;DHT22;40521;53.146;6.556;2023-05-17T13:58:05;12.50;90.20
54622;DHT22;40521;53.146;6.556;2023-05-17T14:01:11;13.90;91.50
54622;DHT22;40521;53.146;6.556;2023-05-17T14:03:35;13.80;89.70
54622;DHT22;40521;53.146;6.556;2023-05-17T14:06:02;14.40;91.10
54622;DHT22;40521;53.146;6.556;2023-05-17T14:08:30;14.20;91.00
54622;DHT22;40521;53.146;6.556;2023-05-17T14:11:01;13.80;91.50
54622;DHT22;40521;53.146;6.556;2023-05-17T14:13:30;15.50;91.70
54622;DHT22;40521;53.146;6.556;2023-05-17T14:15:59;13.70;94.70
54622;DHT22;40521;53.146;6.556;2023-05-17T14:18:30;13.90;92.50
54622;DHT22;40521;53.146;6.556;2023-05-17T14:21:04;15.50;90.80
54622;DHT22;40521;53.146;6.556;2023-05-17T14:23:35;13.80;93.50
54622;DHT22;40521;53.146;6.556;2023-05-17T14:26:05;13.50;93.40
54622;DHT22;40521;53.146;6.556;2023-05-17T14:28:50;11.00;93.50
54622;DHT22;40521;53.146;6.556;2023-05-17T14:31:21;13.80;93.30
54622;DHT22;40521;53.146;6.556;2023-05-17T14:34:06;13.50;92.40
54622;DHT22;40521;53.146;6.556;2023-05-17T14:36:34;14.80;91.50
54622;DHT22;40521;53.146;6.556;2023-05-17T14:39:02;13.40;95.30
54622;DHT22;40521;53.146;6.556;2023-05-17T14:41:31;13.60;92.50
54622;DHT22;40521;53.146;6.556;2023-05-17T14:43:57;13.20;93.90
54622;DHT22;40521;53.146;6.556;2023-05-17T14:46:28;13.10;97.60
54622;DHT22;40521;53.146;6.556;2023-05-17T14:48:56;13.00;96.70
54622;DHT22;40521;53.146;6.556;2023-05-17T14:51:24;11.40;93.90
54622;DHT22;40521;53.146;6.556;2023-05-17T14:53:52;13.00;94.90
54622;DHT22;40521;53.146;6.556;2023-05-17T14:56:20;13.00;95.00
54622;DHT22;40521;53.146;6.556;2023-05-17T14:58:46;12.10;93.20
54622;DHT22;40521;53.146;6.556;2023-05-17T15:01:14;13.20;94.20
54622;DHT22;40521;53.146;6.556;2023-05-17T15:03:41;13.10;93.50
54622;DHT22;40521;53.146;6.556;2023-05-17T15:06:07;12.70;93.40
54622;DHT22;40521;53.146;6.556;2023-05-17T15:08:38;12.70;93.80
54622;DHT22;40521;53.146;6.556;2023-05-17T15:11:06;13.10;93.40
54622;DHT22;40521;53.146;6.556;2023-05-17T15:13:35;13.00;93.30
54622;DHT22;40521;53.146;6.556;2023-05-17T15:16:03;13.20;94.40
54622;DHT22;40521;53.146;6.556;2023-05-17T15:18:29;13.70;93.10
54622;DHT22;40521;53.146;6.556;2023-05-17T15:21:10;13.10;94.50
54622;DHT22;40521;53.146;6.556;2023-05-17T15:23:50;13.40;91.80
54622;DHT22;40521;53.146;6.556;2023-05-17T15:26:19;13.10;94.10
54622;DHT22;40521;53.146;6.556;2023-05-17T15:28:52;11.70;94.20
54622;DHT22;40521;53.146;6.556;2023-05-17T15:31:23;13.20;94.70
54622;DHT22;40521;53.146;6.556;2023-05-17T15:33:49;13.40;92.30
54622;DHT22;40521;53.146;6.556;2023-05-17T15:36:17;13.20;92.00
54622;DHT22;40521;53.146;6.556;2023-05-17T15:38:43;13.20;91.40
54622;DHT22;40521;53.146;6.556;2023-05-17T15:41:10;12.80;94.30
54622;DHT22;40521;53.146;6.556;2023-05-17T15:43:46;12.90;93.10
54622;DHT22;40521;53.146;6.556;2023-05-17T15:46:23;12.90;93.70
54622;DHT22;40521;53.146;6.556;2023-05-17T15:48:51;12.80;93.40
54622;DHT22;40521;53.146;6.556;2023-05-17T15:51:20;13.10;95.40
54622;DHT22;40521;53.146;6.556;2023-05-17T15:53:51;11.00;95.40
54622;DHT22;40521;53.146;6.556;2023-05-17T15:56:19;12.40;95.60
54622;DHT22;40521;53.146;6.556;2023-05-17T15:58:47;12.90;95.70
54622;DHT22;40521;53.146;6.556;2023-05-17T16:01:34;12.40;96.70
54622;DHT22;40521;53.146;6.556;2023-05-17T16:04:23;11.50;95.00
54622;DHT22;40521;53.146;6.556;2023-05-17T16:06:49;12.30;97.00
54622;DHT22;40521;53.146;6.556;2023-05-17T16:09:24;12.90;96.70
54622;DHT22;40521;53.146;6.556;2023-05-17T16:11:50;12.20;95.30
54622;DHT22;40521;53.146;6.556;2023-05-17T16:14:21;12.00;94.00
54622;DHT22;40521;53.146;6.556;2023-05-17T16:16:49;9.90;95.80
54622;DHT22;40521;53.146;6.556;2023-05-17T16:19:17;12.20;97.20
54622;DHT22;40521;53.146;6.556;2023-05-17T16:21:43;12.60;94.10
54622;DHT22;40521;53.146;6.556;2023-05-17T16:24:11;12.90;97.20
54622;DHT22;40521;53.146;6.556;2023-05-17T16:26:37;12.90;97.60
54622;DHT22;40521;53.146;6.556;2023-05-17T16:29:08;13.20;95.30
54622;DHT22;40521;53.146;6.556;2023-05-17T16:31:37;11.10;91.70
54622;DHT22;40521;53.146;6.556;2023-05-17T16:34:03;13.10;97.10
54622;DHT22;40521;53.146;6.556;2023-05-17T16:36:31;13.90;96.90
54622;DHT22;40521;53.146;6.556;2023-05-17T16:38:58;13.40;93.90